Forside
METAR-TAF:

METAR-TAF

Lufthavne :

Jizan, Saudi-Arabien

Breddekreds: 16-54N, længdekreds: 042-35E, højde: 6 m

Aktuelle vejr

Denne rapport blev lavet for 39 minutter siden, kl. 12:00 UTC
Vind 6 kt fra sydvest
Temperatur 39°C
Fugtighed 43%
Tryk 1005 hPa
Sigt 10 km eller mere
Nogle få skyer i en højde af 3000 ft

METAR: OEGN 191200Z 22006KT 9999 FEW030 39/24 Q1005 NOSIG

Tid: 15:39 (12:39 UTC)

Vejrudsigter

Denne rapport blev lavet for 1 time og 39 minutter siden, kl. 11:00 UTC
Foreløbig gælder fra 19 på 12 UTC til 20 på 18 UTC
Vind 5 kt fra vest med vindstød på up til 15 kt
Sigt: 7000 m
Spredte skyer i en højde af 3000 ft
Midlertidig
fra 19 på 12 UTC til 19 på 18 UTC
Sigt: 3500 m
Nogle få skyer i en højde af 3500 ft, Cumulonimbus.
Brudte skyer i en højde af 10000 ft
blæsende støv, tordenbyger, regn
ændring
fra 19 på 19 UTC til 19 på 21 UTC
Vind 3 kt fra varierende retninger

TAF: OEGN 191100Z 1912/2018 27005G15KT 7000 SCT030 TEMPO 1912/1918 3500 BLDU TSRA FEW035CB BKN100 BECMG 1919/1921 VRB03KT

Vejrobservationer og prognoser fra mere end 4000 lufthavne (METAR og TAF).

De gule og røde prikker repræsenterer de meteorologiske stationer.

Flyt musen over at se navnet på stationen.

Så klik over at se vejr observationer og prognoser.

At skifte det kort: Klik på de grønne knapper med et sort kors for at zoome ind; på den grønne knap med en bindestreg for at zoome ud; eller på de grønne pile for tilstødende kort.


METAR-TAF: